Somes Bar, California
Current Conditions -  °F | °C
As of 5:53 AM on Wednesday 26 Nov 2014 (Local Time) from KACV Reporting Station
Clear Clear  
Wind Chill: 46°   Ceiling: Unl
Heat Index: 48°   Visibility: 10mi
Dew Point: 46°   Wind: 5mph
Humidity: 93%   Direction: 100°E
Pressure: 30.23"   Gusts: NA
Location:  41.38°N, 123.49°W
Report Text: KACV 261353Z AUTO 10004KT 10SM CLR 09/08 A3023 RMK AO2 SLP243 T00890078 $
Loading
Personal Weather Stations






























Interactive Weather Map New forecast layout! Learn more

10-Day Weather Forecast

Advertisements
Track Severe Weather on mobile